sensor_id;sensor_type;location;lat;lon;timestamp;temperature;humidity
17341;DHT22;8788;49.930;8.660;2023-06-26T00:02:17;22.90;91.30
17341;DHT22;8788;49.930;8.660;2023-06-26T00:04:44;22.90;91.40
17341;DHT22;8788;49.930;8.660;2023-06-26T00:07:11;22.80;91.60
17341;DHT22;8788;49.930;8.660;2023-06-26T00:09:39;22.70;91.60
17341;DHT22;8788;49.930;8.660;2023-06-26T00:12:07;22.40;91.80
17341;DHT22;8788;49.930;8.660;2023-06-26T00:14:34;22.20;92.30
17341;DHT22;8788;49.930;8.660;2023-06-26T00:17:01;22.20;92.50
17341;DHT22;8788;49.930;8.660;2023-06-26T00:19:28;22.20;92.60
17341;DHT22;8788;49.930;8.660;2023-06-26T00:21:55;22.20;92.60
17341;DHT22;8788;49.930;8.660;2023-06-26T00:24:22;22.20;92.60
17341;DHT22;8788;49.930;8.660;2023-06-26T00:26:50;22.20;92.70
17341;DHT22;8788;49.930;8.660;2023-06-26T00:29:17;22.20;92.70
17341;DHT22;8788;49.930;8.660;2023-06-26T00:31:44;22.30;92.80
17341;DHT22;8788;49.930;8.660;2023-06-26T00:34:12;22.30;92.90
17341;DHT22;8788;49.930;8.660;2023-06-26T00:36:40;22.30;92.90
17341;DHT22;8788;49.930;8.660;2023-06-26T00:39:09;22.30;93.00
17341;DHT22;8788;49.930;8.660;2023-06-26T00:41:36;22.20;93.20
17341;DHT22;8788;49.930;8.660;2023-06-26T00:44:05;22.20;93.20
17341;DHT22;8788;49.930;8.660;2023-06-26T00:46:33;22.30;93.40
17341;DHT22;8788;49.930;8.660;2023-06-26T00:49:02;22.20;93.40
17341;DHT22;8788;49.930;8.660;2023-06-26T00:51:30;22.20;93.40
17341;DHT22;8788;49.930;8.660;2023-06-26T00:54:00;22.10;93.50
17341;DHT22;8788;49.930;8.660;2023-06-26T00:56:28;22.00;93.60
17341;DHT22;8788;49.930;8.660;2023-06-26T00:58:56;21.90;93.70
17341;DHT22;8788;49.930;8.660;2023-06-26T01:01:27;21.90;93.90
17341;DHT22;8788;49.930;8.660;2023-06-26T01:03:54;21.80;94.00
17341;DHT22;8788;49.930;8.660;2023-06-26T01:06:26;21.70;94.20
17341;DHT22;8788;49.930;8.660;2023-06-26T01:08:55;21.70;94.30
17341;DHT22;8788;49.930;8.660;2023-06-26T01:11:22;21.60;94.40
17341;DHT22;8788;49.930;8.660;2023-06-26T01:13:51;21.60;94.60
17341;DHT22;8788;49.930;8.660;2023-06-26T01:16:20;21.50;94.70
17341;DHT22;8788;49.930;8.660;2023-06-26T01:18:49;21.40;95.00
17341;DHT22;8788;49.930;8.660;2023-06-26T01:21:18;21.40;95.20
17341;DHT22;8788;49.930;8.660;2023-06-26T01:23:57;21.30;95.30
17341;DHT22;8788;49.930;8.660;2023-06-26T01:26:29;21.20;95.60
17341;DHT22;8788;49.930;8.660;2023-06-26T01:28:58;21.10;95.70
17341;DHT22;8788;49.930;8.660;2023-06-26T01:31:27;21.10;95.90
17341;DHT22;8788;49.930;8.660;2023-06-26T01:33:57;21.00;96.00
17341;DHT22;8788;49.930;8.660;2023-06-26T01:36:25;20.90;96.20
17341;DHT22;8788;49.930;8.660;2023-06-26T01:38:52;20.90;96.40
17341;DHT22;8788;49.930;8.660;2023-06-26T01:41:19;20.90;97.00
17341;DHT22;8788;49.930;8.660;2023-06-26T01:44:02;20.90;96.80
17341;DHT22;8788;49.930;8.660;2023-06-26T01:46:36;20.80;97.00
17341;DHT22;8788;49.930;8.660;2023-06-26T01:49:09;20.80;97.10
17341;DHT22;8788;49.930;8.660;2023-06-26T01:51:41;20.80;97.20
17341;DHT22;8788;49.930;8.660;2023-06-26T01:54:14;20.70;97.40
17341;DHT22;8788;49.930;8.660;2023-06-26T01:56:45;20.60;97.90
17341;DHT22;8788;49.930;8.660;2023-06-26T01:59:18;20.60;97.70
17341;DHT22;8788;49.930;8.660;2023-06-26T02:01:46;20.60;97.90
17341;DHT22;8788;49.930;8.660;2023-06-26T02:04:13;20.50;98.10
17341;DHT22;8788;49.930;8.660;2023-06-26T02:06:40;20.50;98.30
17341;DHT22;8788;49.930;8.660;2023-06-26T02:09:07;20.50;98.50
17341;DHT22;8788;49.930;8.660;2023-06-26T02:11:34;20.50;98.60
17341;DHT22;8788;49.930;8.660;2023-06-26T02:14:02;20.50;98.80
17341;DHT22;8788;49.930;8.660;2023-06-26T02:16:31;20.40;98.80
17341;DHT22;8788;49.930;8.660;2023-06-26T02:18:58;20.30;98.90
17341;DHT22;8788;49.930;8.660;2023-06-26T02:21:25;20.20;99.10
17341;DHT22;8788;49.930;8.660;2023-06-26T02:23:55;20.20;99.40
17341;DHT22;8788;49.930;8.660;2023-06-26T02:26:22;20.20;99.60
17341;DHT22;8788;49.930;8.660;2023-06-26T02:28:50;20.20;99.80
17341;DHT22;8788;49.930;8.660;2023-06-26T02:31:17;20.10;99.90
17341;DHT22;8788;49.930;8.660;2023-06-26T02:33:46;20.10;99.90
17341;DHT22;8788;49.930;8.660;2023-06-26T02:36:13;20.10;99.90
17341;DHT22;8788;49.930;8.660;2023-06-26T02:38:40;20.00;99.90
17341;DHT22;8788;49.930;8.660;2023-06-26T02:41:07;20.00;99.90
17341;DHT22;8788;49.930;8.660;2023-06-26T02:43:35;19.90;99.90
17341;DHT22;8788;49.930;8.660;2023-06-26T02:46:02;19.90;99.90
17341;DHT22;8788;49.930;8.660;2023-06-26T02:48:29;19.90;99.90
17341;DHT22;8788;49.930;8.660;2023-06-26T02:50:58;19.90;99.90
17341;DHT22;8788;49.930;8.660;2023-06-26T02:53:28;19.80;99.90
17341;DHT22;8788;49.930;8.660;2023-06-26T02:55:55;19.80;99.90
17341;DHT22;8788;49.930;8.660;2023-06-26T02:58:22;19.80;99.90
17341;DHT22;8788;49.930;8.660;2023-06-26T03:00:50;19.70;99.90
17341;DHT22;8788;49.930;8.660;2023-06-26T03:03:19;19.70;99.90
17341;DHT22;8788;49.930;8.660;2023-06-26T03:05:46;19.70;99.90
17341;DHT22;8788;49.930;8.660;2023-06-26T03:08:14;19.70;99.90
17341;DHT22;8788;49.930;8.660;2023-06-26T03:10:42;19.60;99.90
17341;DHT22;8788;49.930;8.660;2023-06-26T03:13:10;19.60;99.90
17341;DHT22;8788;49.930;8.660;2023-06-26T03:15:37;19.60;99.90
17341;DHT22;8788;49.930;8.660;2023-06-26T03:18:05;19.50;99.90
17341;DHT22;8788;49.930;8.660;2023-06-26T03:20:32;19.50;99.90
17341;DHT22;8788;49.930;8.660;2023-06-26T03:22:59;19.50;99.90
17341;DHT22;8788;49.930;8.660;2023-06-26T03:25:28;19.50;99.90
17341;DHT22;8788;49.930;8.660;2023-06-26T03:28:09;19.40;99.90
17341;DHT22;8788;49.930;8.660;2023-06-26T03:30:36;19.40;99.90
17341;DHT22;8788;49.930;8.660;2023-06-26T03:33:04;19.40;99.90
17341;DHT22;8788;49.930;8.660;2023-06-26T03:35:31;19.40;99.90
17341;DHT22;8788;49.930;8.660;2023-06-26T03:37:59;19.40;99.90
17341;DHT22;8788;49.930;8.660;2023-06-26T03:40:28;19.50;99.90
17341;DHT22;8788;49.930;8.660;2023-06-26T03:42:56;19.40;99.90
17341;DHT22;8788;49.930;8.660;2023-06-26T03:45:24;19.50;99.90
17341;DHT22;8788;49.930;8.660;2023-06-26T03:47:51;19.50;99.90
17341;DHT22;8788;49.930;8.660;2023-06-26T03:50:18;19.50;99.90
17341;DHT22;8788;49.930;8.660;2023-06-26T03:52:45;19.50;99.90
17341;DHT22;8788;49.930;8.660;2023-06-26T03:55:13;19.50;99.90
17341;DHT22;8788;49.930;8.660;2023-06-26T03:57:41;19.60;99.90
17341;DHT22;8788;49.930;8.660;2023-06-26T04:00:10;19.60;99.90
17341;DHT22;8788;49.930;8.660;2023-06-26T04:02:41;19.60;99.90
17341;DHT22;8788;49.930;8.660;2023-06-26T04:05:08;19.60;99.90
17341;DHT22;8788;49.930;8.660;2023-06-26T04:07:37;19.60;99.90
17341;DHT22;8788;49.930;8.660;2023-06-26T04:10:06;19.60;99.90
17341;DHT22;8788;49.930;8.660;2023-06-26T04:12:34;19.60;99.90
17341;DHT22;8788;49.930;8.660;2023-06-26T04:15:02;19.60;99.90
17341;DHT22;8788;49.930;8.660;2023-06-26T04:17:29;19.60;99.90
17341;DHT22;8788;49.930;8.660;2023-06-26T04:19:56;19.70;99.90
17341;DHT22;8788;49.930;8.660;2023-06-26T04:22:24;19.70;99.90
17341;DHT22;8788;49.930;8.660;2023-06-26T04:24:51;19.70;99.90
17341;DHT22;8788;49.930;8.660;2023-06-26T04:27:18;19.60;99.90
17341;DHT22;8788;49.930;8.660;2023-06-26T04:29:45;19.60;99.90
17341;DHT22;8788;49.930;8.660;2023-06-26T04:32:14;19.70;99.90
17341;DHT22;8788;49.930;8.660;2023-06-26T04:34:41;19.70;99.90
17341;DHT22;8788;49.930;8.660;2023-06-26T04:37:09;19.80;99.90
17341;DHT22;8788;49.930;8.660;2023-06-26T04:39:36;19.80;99.90
17341;DHT22;8788;49.930;8.660;2023-06-26T04:42:05;19.80;99.90
17341;DHT22;8788;49.930;8.660;2023-06-26T04:44:33;19.80;99.90
17341;DHT22;8788;49.930;8.660;2023-06-26T04:47:00;19.80;99.90
17341;DHT22;8788;49.930;8.660;2023-06-26T04:49:28;19.90;99.90
17341;DHT22;8788;49.930;8.660;2023-06-26T04:51:55;20.00;99.90
17341;DHT22;8788;49.930;8.660;2023-06-26T04:54:26;20.10;99.90
17341;DHT22;8788;49.930;8.660;2023-06-26T04:56:53;20.20;99.90
17341;DHT22;8788;49.930;8.660;2023-06-26T04:59:21;20.20;99.90
17341;DHT22;8788;49.930;8.660;2023-06-26T05:01:48;20.20;99.90
17341;DHT22;8788;49.930;8.660;2023-06-26T05:04:15;20.30;99.90
17341;DHT22;8788;49.930;8.660;2023-06-26T05:06:44;20.30;99.90
17341;DHT22;8788;49.930;8.660;2023-06-26T05:09:11;20.50;99.90
17341;DHT22;8788;49.930;8.660;2023-06-26T05:11:39;20.60;99.90
17341;DHT22;8788;49.930;8.660;2023-06-26T05:14:06;20.70;99.90
17341;DHT22;8788;49.930;8.660;2023-06-26T05:16:35;20.80;99.90
17341;DHT22;8788;49.930;8.660;2023-06-26T05:19:02;21.00;99.90
17341;DHT22;8788;49.930;8.660;2023-06-26T05:21:29;21.10;99.90
17341;DHT22;8788;49.930;8.660;2023-06-26T05:23:58;21.30;99.90
17341;DHT22;8788;49.930;8.660;2023-06-26T05:26:26;21.30;99.90
17341;DHT22;8788;49.930;8.660;2023-06-26T05:28:55;21.40;99.90
17341;DHT22;8788;49.930;8.660;2023-06-26T05:31:22;21.60;99.90
17341;DHT22;8788;49.930;8.660;2023-06-26T05:33:50;21.70;99.90
17341;DHT22;8788;49.930;8.660;2023-06-26T05:36:20;21.80;99.90
17341;DHT22;8788;49.930;8.660;2023-06-26T05:38:50;22.00;99.90
17341;DHT22;8788;49.930;8.660;2023-06-26T05:41:19;22.10;99.90
17341;DHT22;8788;49.930;8.660;2023-06-26T05:43:46;22.10;99.90
17341;DHT22;8788;49.930;8.660;2023-06-26T05:46:13;22.20;99.90
17341;DHT22;8788;49.930;8.660;2023-06-26T05:48:40;22.30;99.90
17341;DHT22;8788;49.930;8.660;2023-06-26T05:51:08;22.40;99.90
17341;DHT22;8788;49.930;8.660;2023-06-26T05:53:35;22.50;99.90
17341;DHT22;8788;49.930;8.660;2023-06-26T05:56:03;22.50;99.90
17341;DHT22;8788;49.930;8.660;2023-06-26T05:58:33;22.60;99.90
17341;DHT22;8788;49.930;8.660;2023-06-26T06:01:00;22.60;99.90
17341;DHT22;8788;49.930;8.660;2023-06-26T06:03:27;22.70;99.90
17341;DHT22;8788;49.930;8.660;2023-06-26T06:05:54;22.70;99.90
17341;DHT22;8788;49.930;8.660;2023-06-26T06:08:21;22.70;99.90
17341;DHT22;8788;49.930;8.660;2023-06-26T06:10:48;22.80;99.90
17341;DHT22;8788;49.930;8.660;2023-06-26T06:13:15;22.80;99.90
17341;DHT22;8788;49.930;8.660;2023-06-26T06:15:43;22.90;99.90
17341;DHT22;8788;49.930;8.660;2023-06-26T06:18:10;23.00;99.90
17341;DHT22;8788;49.930;8.660;2023-06-26T06:20:38;23.10;99.90
17341;DHT22;8788;49.930;8.660;2023-06-26T06:23:05;23.20;99.90
17341;DHT22;8788;49.930;8.660;2023-06-26T06:25:32;23.20;99.90
17341;DHT22;8788;49.930;8.660;2023-06-26T06:27:59;23.30;99.90
17341;DHT22;8788;49.930;8.660;2023-06-26T06:30:26;23.40;99.90
17341;DHT22;8788;49.930;8.660;2023-06-26T06:32:54;23.50;99.90
17341;DHT22;8788;49.930;8.660;2023-06-26T06:35:21;23.60;99.90
17341;DHT22;8788;49.930;8.660;2023-06-26T06:37:49;23.70;99.90
17341;DHT22;8788;49.930;8.660;2023-06-26T06:40:16;23.70;99.90
17341;DHT22;8788;49.930;8.660;2023-06-26T06:42:43;23.80;99.90
17341;DHT22;8788;49.930;8.660;2023-06-26T06:45:10;23.90;99.90
17341;DHT22;8788;49.930;8.660;2023-06-26T06:47:37;24.00;99.90
17341;DHT22;8788;49.930;8.660;2023-06-26T06:50:06;24.10;99.90
17341;DHT22;8788;49.930;8.660;2023-06-26T06:52:36;24.10;99.90
17341;DHT22;8788;49.930;8.660;2023-06-26T06:55:04;24.30;99.90
17341;DHT22;8788;49.930;8.660;2023-06-26T06:57:34;24.40;99.90
17341;DHT22;8788;49.930;8.660;2023-06-26T07:00:03;24.50;99.90
17341;DHT22;8788;49.930;8.660;2023-06-26T07:02:31;24.70;99.90
17341;DHT22;8788;49.930;8.660;2023-06-26T07:04:58;24.70;99.80
17341;DHT22;8788;49.930;8.660;2023-06-26T07:07:28;24.80;99.60
17341;DHT22;8788;49.930;8.660;2023-06-26T07:09:56;25.00;99.40
17341;DHT22;8788;49.930;8.660;2023-06-26T07:12:24;25.00;99.00
17341;DHT22;8788;49.930;8.660;2023-06-26T07:14:51;25.10;98.70
17341;DHT22;8788;49.930;8.660;2023-06-26T07:17:19;25.20;98.60
17341;DHT22;8788;49.930;8.660;2023-06-26T07:19:47;25.30;98.40
17341;DHT22;8788;49.930;8.660;2023-06-26T07:22:14;25.40;98.00
17341;DHT22;8788;49.930;8.660;2023-06-26T07:24:42;25.50;97.70
17341;DHT22;8788;49.930;8.660;2023-06-26T07:27:09;25.60;97.50
17341;DHT22;8788;49.930;8.660;2023-06-26T07:29:36;25.70;96.90
17341;DHT22;8788;49.930;8.660;2023-06-26T07:32:04;25.80;96.60
17341;DHT22;8788;49.930;8.660;2023-06-26T07:34:31;26.00;96.30
17341;DHT22;8788;49.930;8.660;2023-06-26T07:36:58;26.10;95.90
17341;DHT22;8788;49.930;8.660;2023-06-26T07:39:25;26.10;95.30
17341;DHT22;8788;49.930;8.660;2023-06-26T07:41:53;26.20;95.10
17341;DHT22;8788;49.930;8.660;2023-06-26T07:44:21;26.30;95.00
17341;DHT22;8788;49.930;8.660;2023-06-26T07:46:48;26.50;94.90
17341;DHT22;8788;49.930;8.660;2023-06-26T07:49:15;26.50;94.20
17341;DHT22;8788;49.930;8.660;2023-06-26T07:51:42;26.60;93.50
17341;DHT22;8788;49.930;8.660;2023-06-26T07:54:09;26.60;93.80
17341;DHT22;8788;49.930;8.660;2023-06-26T07:56:54;26.70;93.70
17341;DHT22;8788;49.930;8.660;2023-06-26T07:59:21;26.70;93.30
17341;DHT22;8788;49.930;8.660;2023-06-26T08:01:49;26.70;93.10
17341;DHT22;8788;49.930;8.660;2023-06-26T08:04:17;26.80;93.10
17341;DHT22;8788;49.930;8.660;2023-06-26T08:06:45;26.90;93.10
17341;DHT22;8788;49.930;8.660;2023-06-26T08:09:12;27.00;93.20
17341;DHT22;8788;49.930;8.660;2023-06-26T08:11:39;27.10;93.00
17341;DHT22;8788;49.930;8.660;2023-06-26T08:14:08;27.20;92.60
17341;DHT22;8788;49.930;8.660;2023-06-26T08:16:35;27.30;92.30
17341;DHT22;8788;49.930;8.660;2023-06-26T08:19:02;27.30;92.10
17341;DHT22;8788;49.930;8.660;2023-06-26T08:21:29;27.40;91.70
17341;DHT22;8788;49.930;8.660;2023-06-26T08:23:56;27.50;91.20
17341;DHT22;8788;49.930;8.660;2023-06-26T08:26:23;27.50;90.90
17341;DHT22;8788;49.930;8.660;2023-06-26T08:28:50;27.60;90.30
17341;DHT22;8788;49.930;8.660;2023-06-26T08:31:19;27.70;90.20
17341;DHT22;8788;49.930;8.660;2023-06-26T08:33:46;27.70;90.00
17341;DHT22;8788;49.930;8.660;2023-06-26T08:36:13;27.70;90.20
17341;DHT22;8788;49.930;8.660;2023-06-26T08:38:40;27.80;90.10
17341;DHT22;8788;49.930;8.660;2023-06-26T08:41:07;27.80;89.40
17341;DHT22;8788;49.930;8.660;2023-06-26T08:43:35;27.90;88.60
17341;DHT22;8788;49.930;8.660;2023-06-26T08:46:02;27.80;87.60
17341;DHT22;8788;49.930;8.660;2023-06-26T08:48:32;27.80;87.50
17341;DHT22;8788;49.930;8.660;2023-06-26T08:51:01;27.80;87.50
17341;DHT22;8788;49.930;8.660;2023-06-26T08:53:38;27.80;88.20
17341;DHT22;8788;49.930;8.660;2023-06-26T08:56:07;28.00;89.10
17341;DHT22;8788;49.930;8.660;2023-06-26T08:58:35;28.00;88.50
17341;DHT22;8788;49.930;8.660;2023-06-26T09:01:04;27.90;88.60
17341;DHT22;8788;49.930;8.660;2023-06-26T09:03:33;27.90;88.60
17341;DHT22;8788;49.930;8.660;2023-06-26T09:06:01;27.90;87.70
17341;DHT22;8788;49.930;8.660;2023-06-26T09:08:28;27.90;87.80
17341;DHT22;8788;49.930;8.660;2023-06-26T09:10:55;28.00;87.80
17341;DHT22;8788;49.930;8.660;2023-06-26T09:13:22;28.10;87.40
17341;DHT22;8788;49.930;8.660;2023-06-26T09:15:49;28.30;86.40
17341;DHT22;8788;49.930;8.660;2023-06-26T09:18:20;28.40;85.80
17341;DHT22;8788;49.930;8.660;2023-06-26T09:20:49;28.30;85.30
17341;DHT22;8788;49.930;8.660;2023-06-26T09:23:16;28.20;85.80
17341;DHT22;8788;49.930;8.660;2023-06-26T09:25:47;28.10;86.20
17341;DHT22;8788;49.930;8.660;2023-06-26T09:28:14;28.20;86.30
17341;DHT22;8788;49.930;8.660;2023-06-26T09:30:41;28.30;86.60
17341;DHT22;8788;49.930;8.660;2023-06-26T09:33:15;28.50;86.00
17341;DHT22;8788;49.930;8.660;2023-06-26T09:35:43;28.60;84.90
17341;DHT22;8788;49.930;8.660;2023-06-26T09:38:12;28.70;83.80
17341;DHT22;8788;49.930;8.660;2023-06-26T09:40:39;28.80;82.90
17341;DHT22;8788;49.930;8.660;2023-06-26T09:43:07;28.90;82.40
17341;DHT22;8788;49.930;8.660;2023-06-26T09:45:35;29.00;82.10
17341;DHT22;8788;49.930;8.660;2023-06-26T09:48:03;29.00;81.20
17341;DHT22;8788;49.930;8.660;2023-06-26T09:50:32;29.10;81.00
17341;DHT22;8788;49.930;8.660;2023-06-26T09:53:07;29.20;79.30
17341;DHT22;8788;49.930;8.660;2023-06-26T09:55:37;29.30;80.00
17341;DHT22;8788;49.930;8.660;2023-06-26T09:58:04;29.60;80.30
17341;DHT22;8788;49.930;8.660;2023-06-26T10:00:31;29.80;79.00
17341;DHT22;8788;49.930;8.660;2023-06-26T10:02:59;29.80;79.40
17341;DHT22;8788;49.930;8.660;2023-06-26T10:05:26;30.00;79.10
17341;DHT22;8788;49.930;8.660;2023-06-26T10:07:54;30.20;78.30
17341;DHT22;8788;49.930;8.660;2023-06-26T10:10:23;30.20;77.30
17341;DHT22;8788;49.930;8.660;2023-06-26T10:12:57;30.20;76.90
17341;DHT22;8788;49.930;8.660;2023-06-26T10:15:27;30.10;77.40
17341;DHT22;8788;49.930;8.660;2023-06-26T10:17:56;29.90;76.30
17341;DHT22;8788;49.930;8.660;2023-06-26T10:20:24;29.70;76.10
17341;DHT22;8788;49.930;8.660;2023-06-26T10:22:55;29.70;76.80
17341;DHT22;8788;49.930;8.660;2023-06-26T10:25:25;29.70;77.20
17341;DHT22;8788;49.930;8.660;2023-06-26T10:27:57;29.80;77.60
17341;DHT22;8788;49.930;8.660;2023-06-26T10:30:29;30.00;77.70
17341;DHT22;8788;49.930;8.660;2023-06-26T10:32:59;30.20;77.60
17341;DHT22;8788;49.930;8.660;2023-06-26T10:35:27;30.40;77.10
17341;DHT22;8788;49.930;8.660;2023-06-26T10:38:00;30.40;76.60
17341;DHT22;8788;49.930;8.660;2023-06-26T10:40:33;30.30;76.40
17341;DHT22;8788;49.930;8.660;2023-06-26T10:43:09;30.10;76.60
17341;DHT22;8788;49.930;8.660;2023-06-26T10:45:38;30.00;77.10
17341;DHT22;8788;49.930;8.660;2023-06-26T10:48:09;29.90;76.80
17341;DHT22;8788;49.930;8.660;2023-06-26T10:50:36;29.70;77.10
17341;DHT22;8788;49.930;8.660;2023-06-26T10:53:12;29.60;77.70
17341;DHT22;8788;49.930;8.660;2023-06-26T10:55:42;29.70;78.20
17341;DHT22;8788;49.930;8.660;2023-06-26T10:58:29;29.90;78.60
17341;DHT22;8788;49.930;8.660;2023-06-26T11:01:19;30.10;78.00
17341;DHT22;8788;49.930;8.660;2023-06-26T11:03:49;30.10;77.60
17341;DHT22;8788;49.930;8.660;2023-06-26T11:06:18;30.20;77.90
17341;DHT22;8788;49.930;8.660;2023-06-26T11:08:47;30.30;77.80
17341;DHT22;8788;49.930;8.660;2023-06-26T11:11:15;30.40;76.80
17341;DHT22;8788;49.930;8.660;2023-06-26T11:13:45;30.30;75.60
17341;DHT22;8788;49.930;8.660;2023-06-26T11:16:14;30.30;76.30
17341;DHT22;8788;49.930;8.660;2023-06-26T11:18:42;30.20;75.90
17341;DHT22;8788;49.930;8.660;2023-06-26T11:21:10;30.20;75.30
17341;DHT22;8788;49.930;8.660;2023-06-26T11:23:40;30.20;75.30
17341;DHT22;8788;49.930;8.660;2023-06-26T11:26:15;30.20;75.60
17341;DHT22;8788;49.930;8.660;2023-06-26T11:28:51;30.30;75.90
17341;DHT22;8788;49.930;8.660;2023-06-26T11:31:25;30.40;75.20
17341;DHT22;8788;49.930;8.660;2023-06-26T11:33:53;30.40;75.20
17341;DHT22;8788;49.930;8.660;2023-06-26T11:36:23;30.40;75.60
17341;DHT22;8788;49.930;8.660;2023-06-26T11:38:53;30.60;75.70
17341;DHT22;8788;49.930;8.660;2023-06-26T11:41:21;30.70;74.50
17341;DHT22;8788;49.930;8.660;2023-06-26T11:43:49;30.80;74.00
17341;DHT22;8788;49.930;8.660;2023-06-26T11:46:19;30.80;72.90
17341;DHT22;8788;49.930;8.660;2023-06-26T11:48:46;30.70;72.90
17341;DHT22;8788;49.930;8.660;2023-06-26T11:51:14;30.60;73.00
17341;DHT22;8788;49.930;8.660;2023-06-26T11:53:41;30.60;73.10
17341;DHT22;8788;49.930;8.660;2023-06-26T11:56:09;30.50;71.70
17341;DHT22;8788;49.930;8.660;2023-06-26T11:58:37;30.50;71.20
17341;DHT22;8788;49.930;8.660;2023-06-26T12:01:20;30.60;71.60
17341;DHT22;8788;49.930;8.660;2023-06-26T12:03:48;30.90;71.00
17341;DHT22;8788;49.930;8.660;2023-06-26T12:06:16;31.00;70.10
17341;DHT22;8788;49.930;8.660;2023-06-26T12:08:43;31.10;70.10
17341;DHT22;8788;49.930;8.660;2023-06-26T12:11:12;31.20;67.50
17341;DHT22;8788;49.930;8.660;2023-06-26T12:13:39;31.20;66.90
17341;DHT22;8788;49.930;8.660;2023-06-26T12:16:06;31.20;66.80
17341;DHT22;8788;49.930;8.660;2023-06-26T12:18:36;31.10;65.00
17341;DHT22;8788;49.930;8.660;2023-06-26T12:21:03;31.10;64.90
17341;DHT22;8788;49.930;8.660;2023-06-26T12:23:33;31.10;63.00
17341;DHT22;8788;49.930;8.660;2023-06-26T12:26:17;31.10;62.80
17341;DHT22;8788;49.930;8.660;2023-06-26T12:28:44;31.20;62.90
17341;DHT22;8788;49.930;8.660;2023-06-26T12:31:13;31.20;61.10
17341;DHT22;8788;49.930;8.660;2023-06-26T12:33:42;31.10;62.40
17341;DHT22;8788;49.930;8.660;2023-06-26T12:36:11;31.30;60.80
17341;DHT22;8788;49.930;8.660;2023-06-26T12:38:38;31.30;60.20
17341;DHT22;8788;49.930;8.660;2023-06-26T12:41:06;31.40;60.30
17341;DHT22;8788;49.930;8.660;2023-06-26T12:43:38;31.40;60.00
17341;DHT22;8788;49.930;8.660;2023-06-26T12:46:05;31.40;60.00
17341;DHT22;8788;49.930;8.660;2023-06-26T12:48:37;31.40;59.80
17341;DHT22;8788;49.930;8.660;2023-06-26T12:51:12;31.40;60.30
17341;DHT22;8788;49.930;8.660;2023-06-26T12:53:40;31.60;60.40
17341;DHT22;8788;49.930;8.660;2023-06-26T12:56:07;31.60;60.00
17341;DHT22;8788;49.930;8.660;2023-06-26T12:58:35;31.60;59.80
17341;DHT22;8788;49.930;8.660;2023-06-26T13:01:04;31.60;59.80
17341;DHT22;8788;49.930;8.660;2023-06-26T13:03:33;31.50;59.50
17341;DHT22;8788;49.930;8.660;2023-06-26T13:06:00;31.60;59.90
17341;DHT22;8788;49.930;8.660;2023-06-26T13:08:28;31.70;58.70
17341;DHT22;8788;49.930;8.660;2023-06-26T13:10:55;31.80;58.30
17341;DHT22;8788;49.930;8.660;2023-06-26T13:13:22;31.80;57.40
17341;DHT22;8788;49.930;8.660;2023-06-26T13:15:49;31.80;57.00
17341;DHT22;8788;49.930;8.660;2023-06-26T13:18:17;31.70;55.70
17341;DHT22;8788;49.930;8.660;2023-06-26T13:20:44;31.60;55.20
17341;DHT22;8788;49.930;8.660;2023-06-26T13:23:11;31.50;55.30
17341;DHT22;8788;49.930;8.660;2023-06-26T13:25:39;31.50;55.40
17341;DHT22;8788;49.930;8.660;2023-06-26T13:28:06;31.40;55.80
17341;DHT22;8788;49.930;8.660;2023-06-26T13:30:33;31.50;59.50
17341;DHT22;8788;49.930;8.660;2023-06-26T13:33:00;31.50;63.40
17341;DHT22;8788;49.930;8.660;2023-06-26T13:35:27;31.30;65.30
17341;DHT22;8788;49.930;8.660;2023-06-26T13:37:54;31.20;66.20
17341;DHT22;8788;49.930;8.660;2023-06-26T13:40:21;31.10;66.90
17341;DHT22;8788;49.930;8.660;2023-06-26T13:42:50;31.20;67.50
17341;DHT22;8788;49.930;8.660;2023-06-26T13:45:17;31.10;68.30
17341;DHT22;8788;49.930;8.660;2023-06-26T13:47:44;31.00;68.80
17341;DHT22;8788;49.930;8.660;2023-06-26T13:50:11;30.90;69.10
17341;DHT22;8788;49.930;8.660;2023-06-26T13:52:38;30.80;69.50
17341;DHT22;8788;49.930;8.660;2023-06-26T13:55:05;30.90;70.00
17341;DHT22;8788;49.930;8.660;2023-06-26T13:57:33;30.90;70.30
17341;DHT22;8788;49.930;8.660;2023-06-26T14:00:01;30.90;70.00
17341;DHT22;8788;49.930;8.660;2023-06-26T14:02:38;30.60;69.60
17341;DHT22;8788;49.930;8.660;2023-06-26T14:05:05;30.40;70.20
17341;DHT22;8788;49.930;8.660;2023-06-26T14:07:33;30.30;70.90
17341;DHT22;8788;49.930;8.660;2023-06-26T14:10:00;30.40;70.60
17341;DHT22;8788;49.930;8.660;2023-06-26T14:12:27;30.30;70.30
17341;DHT22;8788;49.930;8.660;2023-06-26T14:14:54;30.30;70.60
17341;DHT22;8788;49.930;8.660;2023-06-26T14:17:22;30.50;70.50
17341;DHT22;8788;49.930;8.660;2023-06-26T14:19:51;30.50;70.30
17341;DHT22;8788;49.930;8.660;2023-06-26T14:22:19;30.70;70.20
17341;DHT22;8788;49.930;8.660;2023-06-26T14:24:46;31.00;70.10
17341;DHT22;8788;49.930;8.660;2023-06-26T14:27:13;31.30;69.60
17341;DHT22;8788;49.930;8.660;2023-06-26T14:29:40;31.40;68.00
17341;DHT22;8788;49.930;8.660;2023-06-26T14:32:07;31.20;67.50
17341;DHT22;8788;49.930;8.660;2023-06-26T14:34:36;31.20;67.70
17341;DHT22;8788;49.930;8.660;2023-06-26T14:37:03;31.30;66.90
17341;DHT22;8788;49.930;8.660;2023-06-26T14:39:31;31.00;66.70
17341;DHT22;8788;49.930;8.660;2023-06-26T14:41:58;30.90;67.10
17341;DHT22;8788;49.930;8.660;2023-06-26T14:44:25;30.90;67.50
17341;DHT22;8788;49.930;8.660;2023-06-26T14:46:52;30.90;66.60
17341;DHT22;8788;49.930;8.660;2023-06-26T14:49:19;30.90;66.30
17341;DHT22;8788;49.930;8.660;2023-06-26T14:51:47;30.70;66.10
17341;DHT22;8788;49.930;8.660;2023-06-26T14:54:14;30.50;66.50
17341;DHT22;8788;49.930;8.660;2023-06-26T14:56:41;30.40;66.60
17341;DHT22;8788;49.930;8.660;2023-06-26T14:59:11;30.40;66.60
17341;DHT22;8788;49.930;8.660;2023-06-26T15:01:39;30.50;66.40
17341;DHT22;8788;49.930;8.660;2023-06-26T15:04:06;30.60;66.60
17341;DHT22;8788;49.930;8.660;2023-06-26T15:06:34;30.80;66.50
17341;DHT22;8788;49.930;8.660;2023-06-26T15:09:02;30.60;65.80
17341;DHT22;8788;49.930;8.660;2023-06-26T15:11:31;30.50;65.80
17341;DHT22;8788;49.930;8.660;2023-06-26T15:13:58;30.30;65.80
17341;DHT22;8788;49.930;8.660;2023-06-26T15:16:25;30.10;65.60
17341;DHT22;8788;49.930;8.660;2023-06-26T15:18:52;29.90;65.60
17341;DHT22;8788;49.930;8.660;2023-06-26T15:21:19;29.90;65.80
17341;DHT22;8788;49.930;8.660;2023-06-26T15:23:47;30.00;65.80
17341;DHT22;8788;49.930;8.660;2023-06-26T15:26:15;30.00;65.30
17341;DHT22;8788;49.930;8.660;2023-06-26T15:28:42;30.00;64.90
17341;DHT22;8788;49.930;8.660;2023-06-26T15:31:09;30.00;64.30
17341;DHT22;8788;49.930;8.660;2023-06-26T15:33:36;30.00;64.00
17341;DHT22;8788;49.930;8.660;2023-06-26T15:36:04;30.00;63.70
17341;DHT22;8788;49.930;8.660;2023-06-26T15:38:32;29.90;63.60
17341;DHT22;8788;49.930;8.660;2023-06-26T15:40:59;29.80;63.50
17341;DHT22;8788;49.930;8.660;2023-06-26T15:43:27;29.60;63.80
17341;DHT22;8788;49.930;8.660;2023-06-26T15:45:54;29.50;63.70
17341;DHT22;8788;49.930;8.660;2023-06-26T15:48:21;29.40;63.90
17341;DHT22;8788;49.930;8.660;2023-06-26T15:50:51;29.50;63.50
17341;DHT22;8788;49.930;8.660;2023-06-26T15:53:18;29.60;63.80